sensor_id;sensor_type;location;lat;lon;timestamp;temperature;humidity
41630;DHT22;27322;49.488;8.480;2023-02-28T00:00:17;3.50;86.60
41630;DHT22;27322;49.488;8.480;2023-02-28T00:02:44;3.50;86.70
41630;DHT22;27322;49.488;8.480;2023-02-28T00:05:12;3.50;86.90
41630;DHT22;27322;49.488;8.480;2023-02-28T00:07:38;3.50;87.70
41630;DHT22;27322;49.488;8.480;2023-02-28T00:10:08;3.40;87.90
41630;DHT22;27322;49.488;8.480;2023-02-28T00:12:35;3.40;88.10
41630;DHT22;27322;49.488;8.480;2023-02-28T00:15:02;3.40;88.30
41630;DHT22;27322;49.488;8.480;2023-02-28T00:17:30;3.30;88.30
41630;DHT22;27322;49.488;8.480;2023-02-28T00:19:55;3.30;89.10
41630;DHT22;27322;49.488;8.480;2023-02-28T00:22:22;3.30;90.00
41630;DHT22;27322;49.488;8.480;2023-02-28T00:24:48;3.30;89.80
41630;DHT22;27322;49.488;8.480;2023-02-28T00:27:14;3.30;90.10
41630;DHT22;27322;49.488;8.480;2023-02-28T00:29:40;3.30;90.40
41630;DHT22;27322;49.488;8.480;2023-02-28T00:32:06;3.30;90.20
41630;DHT22;27322;49.488;8.480;2023-02-28T00:34:32;3.20;90.40
41630;DHT22;27322;49.488;8.480;2023-02-28T00:37:03;3.20;90.60
41630;DHT22;27322;49.488;8.480;2023-02-28T00:39:30;3.20;90.70
41630;DHT22;27322;49.488;8.480;2023-02-28T00:41:55;3.20;91.00
41630;DHT22;27322;49.488;8.480;2023-02-28T00:44:21;3.10;91.00
41630;DHT22;27322;49.488;8.480;2023-02-28T00:46:47;3.10;91.30
41630;DHT22;27322;49.488;8.480;2023-02-28T00:49:12;3.10;91.50
41630;DHT22;27322;49.488;8.480;2023-02-28T00:51:38;3.10;91.70
41630;DHT22;27322;49.488;8.480;2023-02-28T00:54:04;3.10;91.80
41630;DHT22;27322;49.488;8.480;2023-02-28T00:56:29;3.10;92.00
41630;DHT22;27322;49.488;8.480;2023-02-28T00:58:55;3.00;92.00
41630;DHT22;27322;49.488;8.480;2023-02-28T01:01:20;3.10;92.50
41630;DHT22;27322;49.488;8.480;2023-02-28T01:03:46;3.10;92.50
41630;DHT22;27322;49.488;8.480;2023-02-28T01:06:11;3.00;92.70
41630;DHT22;27322;49.488;8.480;2023-02-28T01:08:37;3.00;92.80
41630;DHT22;27322;49.488;8.480;2023-02-28T01:11:11;3.00;93.10
41630;DHT22;27322;49.488;8.480;2023-02-28T01:13:37;3.00;93.30
41630;DHT22;27322;49.488;8.480;2023-02-28T01:16:03;3.00;93.50
41630;DHT22;27322;49.488;8.480;2023-02-28T01:18:29;3.00;93.50
41630;DHT22;27322;49.488;8.480;2023-02-28T01:20:54;3.00;93.70
41630;DHT22;27322;49.488;8.480;2023-02-28T01:23:21;2.90;93.80
41630;DHT22;27322;49.488;8.480;2023-02-28T01:25:51;2.90;94.10
41630;DHT22;27322;49.488;8.480;2023-02-28T01:28:16;2.90;94.30
41630;DHT22;27322;49.488;8.480;2023-02-28T01:30:42;2.90;94.50
41630;DHT22;27322;49.488;8.480;2023-02-28T01:33:08;2.90;94.60
41630;DHT22;27322;49.488;8.480;2023-02-28T01:35:34;2.90;94.90
41630;DHT22;27322;49.488;8.480;2023-02-28T01:38:01;2.90;95.00
41630;DHT22;27322;49.488;8.480;2023-02-28T01:40:26;2.80;95.10
41630;DHT22;27322;49.488;8.480;2023-02-28T01:42:52;2.80;95.30
41630;DHT22;27322;49.488;8.480;2023-02-28T01:45:27;2.80;95.60
41630;DHT22;27322;49.488;8.480;2023-02-28T01:48:02;2.80;95.60
41630;DHT22;27322;49.488;8.480;2023-02-28T01:50:34;2.80;95.70
41630;DHT22;27322;49.488;8.480;2023-02-28T01:53:07;2.80;96.00
41630;DHT22;27322;49.488;8.480;2023-02-28T01:55:33;2.70;96.20
41630;DHT22;27322;49.488;8.480;2023-02-28T01:58:02;2.70;96.30
41630;DHT22;27322;49.488;8.480;2023-02-28T02:00:30;2.70;96.20
41630;DHT22;27322;49.488;8.480;2023-02-28T02:02:59;2.70;96.50
41630;DHT22;27322;49.488;8.480;2023-02-28T02:05:30;2.70;96.70
41630;DHT22;27322;49.488;8.480;2023-02-28T02:08:05;2.70;97.00
41630;DHT22;27322;49.488;8.480;2023-02-28T02:10:47;2.70;97.20
41630;DHT22;27322;49.488;8.480;2023-02-28T02:13:44;2.70;97.40
41630;DHT22;27322;49.488;8.480;2023-02-28T02:24:52;2.60;97.80
41630;DHT22;27322;49.488;8.480;2023-02-28T02:30:27;2.60;97.80
41630;DHT22;27322;49.488;8.480;2023-02-28T02:36:05;2.60;98.40
41630;DHT22;27322;49.488;8.480;2023-02-28T02:46:42;2.50;98.90
41630;DHT22;27322;49.488;8.480;2023-02-28T02:49:15;2.50;99.00
41630;DHT22;27322;49.488;8.480;2023-02-28T02:51:42;2.50;99.10
41630;DHT22;27322;49.488;8.480;2023-02-28T02:54:12;2.50;99.30
41630;DHT22;27322;49.488;8.480;2023-02-28T02:56:43;2.50;99.40
41630;DHT22;27322;49.488;8.480;2023-02-28T02:59:12;2.50;99.60
41630;DHT22;27322;49.488;8.480;2023-02-28T03:01:40;2.40;99.60
41630;DHT22;27322;49.488;8.480;2023-02-28T03:04:11;2.40;99.70
41630;DHT22;27322;49.488;8.480;2023-02-28T03:06:38;2.40;99.70
41630;DHT22;27322;49.488;8.480;2023-02-28T03:09:04;2.40;99.80
41630;DHT22;27322;49.488;8.480;2023-02-28T03:11:30;2.40;99.90
41630;DHT22;27322;49.488;8.480;2023-02-28T03:25:12;2.30;99.90
41630;DHT22;27322;49.488;8.480;2023-02-28T03:30:51;2.30;99.90
41630;DHT22;27322;49.488;8.480;2023-02-28T03:36:14;2.30;99.90
41630;DHT22;27322;49.488;8.480;2023-02-28T03:41:29;2.30;99.90
41630;DHT22;27322;49.488;8.480;2023-02-28T03:44:05;2.30;99.90
41630;DHT22;27322;49.488;8.480;2023-02-28T03:46:37;2.30;99.90
41630;DHT22;27322;49.488;8.480;2023-02-28T03:49:26;2.20;99.90
41630;DHT22;27322;49.488;8.480;2023-02-28T03:51:54;2.30;99.90
41630;DHT22;27322;49.488;8.480;2023-02-28T03:54:31;2.30;99.90
41630;DHT22;27322;49.488;8.480;2023-02-28T03:57:28;2.30;99.90
41630;DHT22;27322;49.488;8.480;2023-02-28T03:59:59;2.20;99.90
41630;DHT22;27322;49.488;8.480;2023-02-28T04:02:29;2.30;99.90
41630;DHT22;27322;49.488;8.480;2023-02-28T04:04:55;2.30;99.90
41630;DHT22;27322;49.488;8.480;2023-02-28T04:07:21;2.20;99.90
41630;DHT22;27322;49.488;8.480;2023-02-28T04:09:46;2.20;99.90
41630;DHT22;27322;49.488;8.480;2023-02-28T04:12:12;2.20;99.90
41630;DHT22;27322;49.488;8.480;2023-02-28T04:14:37;2.20;99.90
41630;DHT22;27322;49.488;8.480;2023-02-28T04:17:03;2.20;99.90
41630;DHT22;27322;49.488;8.480;2023-02-28T04:19:29;2.20;99.90
41630;DHT22;27322;49.488;8.480;2023-02-28T04:21:55;2.20;99.90
41630;DHT22;27322;49.488;8.480;2023-02-28T04:24:23;2.20;99.90
41630;DHT22;27322;49.488;8.480;2023-02-28T04:26:54;2.10;99.90
41630;DHT22;27322;49.488;8.480;2023-02-28T04:29:28;2.10;99.90
41630;DHT22;27322;49.488;8.480;2023-02-28T04:31:55;2.20;99.90
41630;DHT22;27322;49.488;8.480;2023-02-28T04:34:23;2.20;99.90
41630;DHT22;27322;49.488;8.480;2023-02-28T04:36:50;2.10;99.90
41630;DHT22;27322;49.488;8.480;2023-02-28T04:39:17;2.20;99.90
41630;DHT22;27322;49.488;8.480;2023-02-28T04:41:44;2.20;99.90
41630;DHT22;27322;49.488;8.480;2023-02-28T04:44:10;2.10;99.90
41630;DHT22;27322;49.488;8.480;2023-02-28T04:46:36;2.20;99.90
41630;DHT22;27322;49.488;8.480;2023-02-28T04:49:01;2.20;99.90
41630;DHT22;27322;49.488;8.480;2023-02-28T04:51:27;2.20;99.90
41630;DHT22;27322;49.488;8.480;2023-02-28T04:53:53;2.20;99.90
41630;DHT22;27322;49.488;8.480;2023-02-28T04:56:19;2.20;99.90
41630;DHT22;27322;49.488;8.480;2023-02-28T04:58:45;2.20;99.90
41630;DHT22;27322;49.488;8.480;2023-02-28T05:01:22;2.20;99.90
41630;DHT22;27322;49.488;8.480;2023-02-28T05:03:49;2.20;99.90
41630;DHT22;27322;49.488;8.480;2023-02-28T05:06:15;2.20;99.90
41630;DHT22;27322;49.488;8.480;2023-02-28T05:08:41;2.20;99.90
41630;DHT22;27322;49.488;8.480;2023-02-28T05:11:17;2.20;99.90
41630;DHT22;27322;49.488;8.480;2023-02-28T05:13:43;2.10;99.90
41630;DHT22;27322;49.488;8.480;2023-02-28T05:16:09;2.10;99.90
41630;DHT22;27322;49.488;8.480;2023-02-28T05:18:34;2.10;99.90
41630;DHT22;27322;49.488;8.480;2023-02-28T05:21:00;2.10;99.90
41630;DHT22;27322;49.488;8.480;2023-02-28T05:23:28;2.10;99.90
41630;DHT22;27322;49.488;8.480;2023-02-28T05:25:54;2.10;99.90
41630;DHT22;27322;49.488;8.480;2023-02-28T05:28:20;2.20;99.90
41630;DHT22;27322;49.488;8.480;2023-02-28T05:30:46;2.20;99.90
41630;DHT22;27322;49.488;8.480;2023-02-28T05:33:12;2.20;99.90
41630;DHT22;27322;49.488;8.480;2023-02-28T05:35:42;2.20;99.90
41630;DHT22;27322;49.488;8.480;2023-02-28T05:38:10;2.20;99.90
41630;DHT22;27322;49.488;8.480;2023-02-28T05:40:38;2.20;99.90
41630;DHT22;27322;49.488;8.480;2023-02-28T05:43:04;2.30;99.90
41630;DHT22;27322;49.488;8.480;2023-02-28T05:45:30;2.30;99.90
41630;DHT22;27322;49.488;8.480;2023-02-28T05:47:55;2.30;99.90
41630;DHT22;27322;49.488;8.480;2023-02-28T05:50:21;2.30;99.90
41630;DHT22;27322;49.488;8.480;2023-02-28T05:52:50;2.30;99.90
41630;DHT22;27322;49.488;8.480;2023-02-28T05:55:16;2.30;99.90
41630;DHT22;27322;49.488;8.480;2023-02-28T05:57:42;2.30;99.90
41630;DHT22;27322;49.488;8.480;2023-02-28T06:00:08;2.30;99.90
41630;DHT22;27322;49.488;8.480;2023-02-28T06:02:34;2.30;99.90
41630;DHT22;27322;49.488;8.480;2023-02-28T06:05:00;2.30;99.90
41630;DHT22;27322;49.488;8.480;2023-02-28T06:07:25;2.30;99.90
41630;DHT22;27322;49.488;8.480;2023-02-28T06:09:51;2.30;99.90
41630;DHT22;27322;49.488;8.480;2023-02-28T06:12:17;2.30;99.90
41630;DHT22;27322;49.488;8.480;2023-02-28T06:14:43;2.30;99.90
41630;DHT22;27322;49.488;8.480;2023-02-28T06:17:09;2.30;99.90
41630;DHT22;27322;49.488;8.480;2023-02-28T06:19:37;2.30;99.90
41630;DHT22;27322;49.488;8.480;2023-02-28T06:22:04;2.40;99.90
41630;DHT22;27322;49.488;8.480;2023-02-28T06:24:30;2.40;99.90
41630;DHT22;27322;49.488;8.480;2023-02-28T06:26:56;2.40;99.90
41630;DHT22;27322;49.488;8.480;2023-02-28T06:29:24;2.40;99.90
41630;DHT22;27322;49.488;8.480;2023-02-28T06:31:50;2.30;99.90
41630;DHT22;27322;49.488;8.480;2023-02-28T06:34:16;2.30;99.90
41630;DHT22;27322;49.488;8.480;2023-02-28T06:36:42;2.40;99.90
41630;DHT22;27322;49.488;8.480;2023-02-28T06:39:08;2.40;99.90
41630;DHT22;27322;49.488;8.480;2023-02-28T06:41:35;2.40;99.90
41630;DHT22;27322;49.488;8.480;2023-02-28T06:44:08;2.40;99.90
41630;DHT22;27322;49.488;8.480;2023-02-28T06:46:36;2.40;99.90
41630;DHT22;27322;49.488;8.480;2023-02-28T06:49:02;2.40;99.90
41630;DHT22;27322;49.488;8.480;2023-02-28T06:51:27;2.40;99.90
41630;DHT22;27322;49.488;8.480;2023-02-28T06:53:53;2.40;99.90
41630;DHT22;27322;49.488;8.480;2023-02-28T06:56:19;2.40;99.90
41630;DHT22;27322;49.488;8.480;2023-02-28T06:58:47;2.40;99.90
41630;DHT22;27322;49.488;8.480;2023-02-28T07:01:14;2.40;99.90
41630;DHT22;27322;49.488;8.480;2023-02-28T07:03:40;2.40;99.90
41630;DHT22;27322;49.488;8.480;2023-02-28T07:06:06;2.40;99.90
41630;DHT22;27322;49.488;8.480;2023-02-28T07:08:33;2.40;99.90
41630;DHT22;27322;49.488;8.480;2023-02-28T07:10:58;2.40;99.90
41630;DHT22;27322;49.488;8.480;2023-02-28T07:13:25;2.40;99.90
41630;DHT22;27322;49.488;8.480;2023-02-28T07:15:58;2.50;99.90
41630;DHT22;27322;49.488;8.480;2023-02-28T07:18:25;2.50;99.90
41630;DHT22;27322;49.488;8.480;2023-02-28T07:20:51;2.50;99.90
41630;DHT22;27322;49.488;8.480;2023-02-28T07:23:17;2.60;99.90
41630;DHT22;27322;49.488;8.480;2023-02-28T07:25:43;2.60;99.90
41630;DHT22;27322;49.488;8.480;2023-02-28T07:28:09;2.60;99.90
41630;DHT22;27322;49.488;8.480;2023-02-28T07:30:35;2.60;99.90
41630;DHT22;27322;49.488;8.480;2023-02-28T07:33:00;2.60;99.90
41630;DHT22;27322;49.488;8.480;2023-02-28T07:35:26;2.70;99.90
41630;DHT22;27322;49.488;8.480;2023-02-28T07:37:51;2.70;99.90
41630;DHT22;27322;49.488;8.480;2023-02-28T07:40:17;2.70;99.90
41630;DHT22;27322;49.488;8.480;2023-02-28T07:42:43;2.80;99.90
41630;DHT22;27322;49.488;8.480;2023-02-28T07:45:11;2.80;99.90
41630;DHT22;27322;49.488;8.480;2023-02-28T07:47:40;2.80;99.90
41630;DHT22;27322;49.488;8.480;2023-02-28T07:50:09;2.90;99.90
41630;DHT22;27322;49.488;8.480;2023-02-28T07:52:36;2.90;99.90
41630;DHT22;27322;49.488;8.480;2023-02-28T07:55:03;3.00;99.90
41630;DHT22;27322;49.488;8.480;2023-02-28T07:57:29;3.00;99.90
41630;DHT22;27322;49.488;8.480;2023-02-28T07:59:55;3.00;99.80
41630;DHT22;27322;49.488;8.480;2023-02-28T08:02:21;3.00;99.90
41630;DHT22;27322;49.488;8.480;2023-02-28T08:04:46;3.10;99.90
41630;DHT22;27322;49.488;8.480;2023-02-28T08:07:13;3.10;99.90
41630;DHT22;27322;49.488;8.480;2023-02-28T08:09:40;3.10;99.90
41630;DHT22;27322;49.488;8.480;2023-02-28T08:12:07;3.20;99.70
41630;DHT22;27322;49.488;8.480;2023-02-28T08:14:33;3.20;99.30
41630;DHT22;27322;49.488;8.480;2023-02-28T08:16:59;3.20;99.60
41630;DHT22;27322;49.488;8.480;2023-02-28T08:19:24;3.30;99.80
41630;DHT22;27322;49.488;8.480;2023-02-28T08:21:50;3.30;99.90
41630;DHT22;27322;49.488;8.480;2023-02-28T08:24:15;3.30;99.60
41630;DHT22;27322;49.488;8.480;2023-02-28T08:26:41;3.30;99.10
41630;DHT22;27322;49.488;8.480;2023-02-28T08:29:07;3.40;99.20
41630;DHT22;27322;49.488;8.480;2023-02-28T08:31:32;3.40;99.90
41630;DHT22;27322;49.488;8.480;2023-02-28T08:33:58;3.50;99.50
41630;DHT22;27322;49.488;8.480;2023-02-28T08:36:25;3.50;99.60
41630;DHT22;27322;49.488;8.480;2023-02-28T08:38:53;3.60;98.90
41630;DHT22;27322;49.488;8.480;2023-02-28T08:41:19;3.60;98.60
41630;DHT22;27322;49.488;8.480;2023-02-28T08:43:44;3.70;98.30
41630;DHT22;27322;49.488;8.480;2023-02-28T08:46:14;3.60;98.40
41630;DHT22;27322;49.488;8.480;2023-02-28T08:48:40;3.70;98.50
41630;DHT22;27322;49.488;8.480;2023-02-28T08:51:09;3.70;98.40
41630;DHT22;27322;49.488;8.480;2023-02-28T08:53:36;3.80;98.80
41630;DHT22;27322;49.488;8.480;2023-02-28T08:56:08;3.80;98.70
41630;DHT22;27322;49.488;8.480;2023-02-28T08:58:34;3.90;98.60
41630;DHT22;27322;49.488;8.480;2023-02-28T09:01:06;3.90;97.70
41630;DHT22;27322;49.488;8.480;2023-02-28T09:03:32;4.00;97.80
41630;DHT22;27322;49.488;8.480;2023-02-28T09:06:00;4.00;97.80
41630;DHT22;27322;49.488;8.480;2023-02-28T09:08:28;4.10;97.50
41630;DHT22;27322;49.488;8.480;2023-02-28T09:10:53;4.10;97.10
41630;DHT22;27322;49.488;8.480;2023-02-28T09:13:22;4.10;96.70
41630;DHT22;27322;49.488;8.480;2023-02-28T09:15:48;4.10;95.90
41630;DHT22;27322;49.488;8.480;2023-02-28T09:18:14;4.10;95.80
41630;DHT22;27322;49.488;8.480;2023-02-28T09:20:43;4.10;96.40
41630;DHT22;27322;49.488;8.480;2023-02-28T09:23:10;4.20;96.70
41630;DHT22;27322;49.488;8.480;2023-02-28T09:25:37;4.20;96.40
41630;DHT22;27322;49.488;8.480;2023-02-28T09:28:03;4.30;95.40
41630;DHT22;27322;49.488;8.480;2023-02-28T09:30:30;4.30;95.60
41630;DHT22;27322;49.488;8.480;2023-02-28T09:32:55;4.30;94.80
41630;DHT22;27322;49.488;8.480;2023-02-28T09:35:22;4.40;95.40
41630;DHT22;27322;49.488;8.480;2023-02-28T09:37:52;4.40;95.50
41630;DHT22;27322;49.488;8.480;2023-02-28T09:40:20;4.40;94.10
41630;DHT22;27322;49.488;8.480;2023-02-28T09:42:48;4.40;93.50
41630;DHT22;27322;49.488;8.480;2023-02-28T09:45:35;4.50;94.20
41630;DHT22;27322;49.488;8.480;2023-02-28T09:48:07;4.60;93.30
41630;DHT22;27322;49.488;8.480;2023-02-28T09:50:40;4.60;92.80
41630;DHT22;27322;49.488;8.480;2023-02-28T09:55:47;4.70;93.00
41630;DHT22;27322;49.488;8.480;2023-02-28T09:58:23;4.70;92.10
41630;DHT22;27322;49.488;8.480;2023-02-28T10:01:09;4.70;91.60
41630;DHT22;27322;49.488;8.480;2023-02-28T10:03:40;4.80;92.00
41630;DHT22;27322;49.488;8.480;2023-02-28T10:06:31;4.80;92.50
41630;DHT22;27322;49.488;8.480;2023-02-28T10:09:10;4.90;92.30
41630;DHT22;27322;49.488;8.480;2023-02-28T10:11:39;4.90;92.40
41630;DHT22;27322;49.488;8.480;2023-02-28T10:14:24;5.00;91.70
41630;DHT22;27322;49.488;8.480;2023-02-28T10:17:16;5.20;91.80
41630;DHT22;27322;49.488;8.480;2023-02-28T10:22:22;5.50;92.00
41630;DHT22;27322;49.488;8.480;2023-02-28T10:24:53;5.70;90.30
41630;DHT22;27322;49.488;8.480;2023-02-28T10:27:27;5.90;89.90
41630;DHT22;27322;49.488;8.480;2023-02-28T10:29:55;6.20;89.30
41630;DHT22;27322;49.488;8.480;2023-02-28T10:32:27;6.50;83.40
41630;DHT22;27322;49.488;8.480;2023-02-28T10:35:16;6.80;80.30
41630;DHT22;27322;49.488;8.480;2023-02-28T10:37:44;7.00;78.90
41630;DHT22;27322;49.488;8.480;2023-02-28T10:43:12;7.00;79.20
41630;DHT22;27322;49.488;8.480;2023-02-28T10:48:33;7.00;77.80
41630;DHT22;27322;49.488;8.480;2023-02-28T10:51:00;6.80;77.50
41630;DHT22;27322;49.488;8.480;2023-02-28T11:01:45;6.50;79.60
41630;DHT22;27322;49.488;8.480;2023-02-28T11:07:20;6.40;77.20
41630;DHT22;27322;49.488;8.480;2023-02-28T11:09:50;6.40;77.70
41630;DHT22;27322;49.488;8.480;2023-02-28T11:12:37;6.50;77.40
41630;DHT22;27322;49.488;8.480;2023-02-28T11:20:30;6.70;78.00
41630;DHT22;27322;49.488;8.480;2023-02-28T11:22:57;6.80;76.70
41630;DHT22;27322;49.488;8.480;2023-02-28T11:25:30;6.80;75.70
41630;DHT22;27322;49.488;8.480;2023-02-28T11:28:02;6.80;76.00
41630;DHT22;27322;49.488;8.480;2023-02-28T11:30:40;6.80;76.10
41630;DHT22;27322;49.488;8.480;2023-02-28T11:33:31;6.80;77.00
41630;DHT22;27322;49.488;8.480;2023-02-28T11:36:07;6.80;77.60
41630;DHT22;27322;49.488;8.480;2023-02-28T11:38:35;6.90;77.10
41630;DHT22;27322;49.488;8.480;2023-02-28T11:46:56;7.20;74.50
41630;DHT22;27322;49.488;8.480;2023-02-28T11:50:10;7.20;74.70
41630;DHT22;27322;49.488;8.480;2023-02-28T12:06:47;6.70;73.50
41630;DHT22;27322;49.488;8.480;2023-02-28T12:20:25;6.40;75.10
41630;DHT22;27322;49.488;8.480;2023-02-28T12:26:15;6.40;77.60
41630;DHT22;27322;49.488;8.480;2023-02-28T12:28:54;6.40;75.70
41630;DHT22;27322;49.488;8.480;2023-02-28T12:31:29;6.40;76.20
41630;DHT22;27322;49.488;8.480;2023-02-28T12:34:01;6.40;75.10
41630;DHT22;27322;49.488;8.480;2023-02-28T12:36:28;6.40;74.20
41630;DHT22;27322;49.488;8.480;2023-02-28T12:39:00;6.40;75.50
41630;DHT22;27322;49.488;8.480;2023-02-28T12:44:06;6.40;74.90
41630;DHT22;27322;49.488;8.480;2023-02-28T12:46:41;6.40;75.60
41630;DHT22;27322;49.488;8.480;2023-02-28T12:49:24;6.40;75.80
41630;DHT22;27322;49.488;8.480;2023-02-28T12:51:53;6.40;76.20
41630;DHT22;27322;49.488;8.480;2023-02-28T13:00:17;6.50;75.50
41630;DHT22;27322;49.488;8.480;2023-02-28T13:14:20;6.40;76.30
41630;DHT22;27322;49.488;8.480;2023-02-28T13:17:10;6.40;75.50
41630;DHT22;27322;49.488;8.480;2023-02-28T13:24:55;6.40;75.90
41630;DHT22;27322;49.488;8.480;2023-02-28T13:27:33;6.40;76.80
41630;DHT22;27322;49.488;8.480;2023-02-28T13:30:00;6.40;75.30
41630;DHT22;27322;49.488;8.480;2023-02-28T13:32:34;6.40;75.10
41630;DHT22;27322;49.488;8.480;2023-02-28T13:37:37;6.50;76.70
41630;DHT22;27322;49.488;8.480;2023-02-28T13:40:31;6.50;75.50
41630;DHT22;27322;49.488;8.480;2023-02-28T13:43:02;6.40;75.30
41630;DHT22;27322;49.488;8.480;2023-02-28T13:45:28;6.50;75.10
41630;DHT22;27322;49.488;8.480;2023-02-28T13:48:25;6.40;74.00
41630;DHT22;27322;49.488;8.480;2023-02-28T13:50:52;6.40;73.90
41630;DHT22;27322;49.488;8.480;2023-02-28T13:56:07;6.40;74.80
41630;DHT22;27322;49.488;8.480;2023-02-28T13:58:54;6.40;74.80
41630;DHT22;27322;49.488;8.480;2023-02-28T14:06:29;6.50;76.70
41630;DHT22;27322;49.488;8.480;2023-02-28T14:11:38;6.80;74.10
41630;DHT22;27322;49.488;8.480;2023-02-28T14:14:08;7.10;74.00
41630;DHT22;27322;49.488;8.480;2023-02-28T14:16:44;7.70;73.60
41630;DHT22;27322;49.488;8.480;2023-02-28T14:19:24;8.30;72.40
41630;DHT22;27322;49.488;8.480;2023-02-28T14:22:00;8.40;70.30
41630;DHT22;27322;49.488;8.480;2023-02-28T14:30:29;8.40;69.60
41630;DHT22;27322;49.488;8.480;2023-02-28T14:36:00;8.20;68.60
41630;DHT22;27322;49.488;8.480;2023-02-28T14:38:42;7.80;69.60
41630;DHT22;27322;49.488;8.480;2023-02-28T14:41:19;7.60;70.80
41630;DHT22;27322;49.488;8.480;2023-02-28T14:44:13;7.30;71.10
41630;DHT22;27322;49.488;8.480;2023-02-28T14:46:41;7.10;71.70
41630;DHT22;27322;49.488;8.480;2023-02-28T14:49:28;7.00;72.60
41630;DHT22;27322;49.488;8.480;2023-02-28T14:54:32;6.80;74.00
41630;DHT22;27322;49.488;8.480;2023-02-28T14:56:58;6.80;75.50
41630;DHT22;27322;49.488;8.480;2023-02-28T14:59:33;6.70;75.00
41630;DHT22;27322;49.488;8.480;2023-02-28T15:02:19;6.70;75.90
41630;DHT22;27322;49.488;8.480;2023-02-28T15:04:58;6.70;74.80
41630;DHT22;27322;49.488;8.480;2023-02-28T15:07:25;6.60;73.70
41630;DHT22;27322;49.488;8.480;2023-02-28T15:10:26;6.60;75.30
41630;DHT22;27322;49.488;8.480;2023-02-28T15:13:00;6.50;74.90
41630;DHT22;27322;49.488;8.480;2023-02-28T15:17:59;6.50;75.10
41630;DHT22;27322;49.488;8.480;2023-02-28T15:20:26;6.50;74.70
41630;DHT22;27322;49.488;8.480;2023-02-28T15:22:54;6.40;75.10
41630;DHT22;27322;49.488;8.480;2023-02-28T15:25:22;6.40;76.00
41630;DHT22;27322;49.488;8.480;2023-02-28T15:27:56;6.40;76.90
41630;DHT22;27322;49.488;8.480;2023-02-28T15:30:28;6.40;76.60
41630;DHT22;27322;49.488;8.480;2023-02-28T15:33:17;6.40;75.80
41630;DHT22;27322;49.488;8.480;2023-02-28T15:35:43;6.30;75.60
41630;DHT22;27322;49.488;8.480;2023-02-28T15:40:42;6.30;77.40
41630;DHT22;27322;49.488;8.480;2023-02-28T15:43:14;6.30;76.40
41630;DHT22;27322;49.488;8.480;2023-02-28T15:45:47;6.30;77.00
41630;DHT22;27322;49.488;8.480;2023-02-28T15:48:25;6.20;77.60
41630;DHT22;27322;49.488;8.480;2023-02-28T15:53:47;6.20;78.60
41630;DHT22;27322;49.488;8.480;2023-02-28T15:59:03;6.20;77.60
41630;DHT22;27322;49.488;8.480;2023-02-28T16:01:35;6.20;76.70
41630;DHT22;27322;49.488;8.480;2023-02-28T16:04:04;6.10;77.80
41630;DHT22;27322;49.488;8.480;2023-02-28T16:08:58;6.10;77.30
41630;DHT22;27322;49.488;8.480;2023-02-28T16:11:24;6.10;78.20
41630;DHT22;27322;49.488;8.480;2023-02-28T16:13:50;6.10;78.90
41630;DHT22;27322;49.488;8.480;2023-02-28T16:16:22;6.10;79.90
41630;DHT22;27322;49.488;8.480;2023-02-28T16:18:48;6.10;80.20
41630;DHT22;27322;49.488;8.480;2023-02-28T16:21:14;6.10;80.30
41630;DHT22;27322;49.488;8.480;2023-02-28T16:23:39;6.10;81.40
41630;DHT22;27322;49.488;8.480;2023-02-28T16:26:05;6.10;80.80
41630;DHT22;27322;49.488;8.480;2023-02-28T16:28:34;6.00;80.30
41630;DHT22;27322;49.488;8.480;2023-02-28T16:31:02;6.00;80.40
41630;DHT22;27322;49.488;8.480;2023-02-28T16:33:32;6.00;81.20
41630;DHT22;27322;49.488;8.480;2023-02-28T16:35:58;6.00;81.40
41630;DHT22;27322;49.488;8.480;2023-02-28T16:38:24;6.00;80.90
41630;DHT22;27322;49.488;8.480;2023-02-28T16:40:51;6.00;80.90
41630;DHT22;27322;49.488;8.480;2023-02-28T16:43:23;6.00;81.80
41630;DHT22;27322;49.488;8.480;2023-02-28T16:45:54;6.00;82.20
41630;DHT22;27322;49.488;8.480;2023-02-28T16:48:20;6.00;82.00
41630;DHT22;27322;49.488;8.480;2023-02-28T16:50:46;6.00;82.30
41630;DHT22;27322;49.488;8.480;2023-02-28T16:53:11;6.00;81.60
41630;DHT22;27322;49.488;8.480;2023-02-28T16:55:38;6.00;81.00
41630;DHT22;27322;49.488;8.480;2023-02-28T16:58:04;6.00;81.70
41630;DHT22;27322;49.488;8.480;2023-02-28T17:00:32;6.00;80.70
41630;DHT22;27322;49.488;8.480;2023-02-28T17:02:58;6.00;81.50
41630;DHT22;27322;49.488;8.480;2023-02-28T17:05:31;6.00;81.60
41630;DHT22;27322;49.488;8.480;2023-02-28T17:07:58;6.00;82.20
41630;DHT22;27322;49.488;8.480;2023-02-28T17:10:26;6.00;82.50
41630;DHT22;27322;49.488;8.480;2023-02-28T17:12:52;6.00;83.40
41630;DHT22;27322;49.488;8.480;2023-02-28T17:15:19;6.00;83.20
41630;DHT22;27322;49.488;8.480;2023-02-28T17:17:46;6.00;83.10
41630;DHT22;27322;49.488;8.480;2023-02-28T17:20:18;6.00;83.10
41630;DHT22;27322;49.488;8.480;2023-02-28T17:22:44;5.90;83.10
41630;DHT22;27322;49.488;8.480;2023-02-28T17:25:10;5.90;83.00
41630;DHT22;27322;49.488;8.480;2023-02-28T17:27:36;5.90;84.00
41630;DHT22;27322;49.488;8.480;2023-02-28T17:30:25;5.90;83.90
41630;DHT22;27322;49.488;8.480;2023-02-28T17:32:49;5.80;83.90
41630;DHT22;27322;49.488;8.480;2023-02-28T17:35:15;5.90;84.00
41630;DHT22;27322;49.488;8.480;2023-02-28T17:37:41;5.80;83.80
41630;DHT22;27322;49.488;8.480;2023-02-28T17:40:16;5.80;84.10
41630;DHT22;27322;49.488;8.480;2023-02-28T17:42:43;5.80;84.70
41630;DHT22;27322;49.488;8.480;2023-02-28T17:45:09;5.80;84.50
41630;DHT22;27322;49.488;8.480;2023-02-28T17:47:35;5.70;84.20
41630;DHT22;27322;49.488;8.480;2023-02-28T17:50:00;5.70;84.20
41630;DHT22;27322;49.488;8.480;2023-02-28T17:52:26;5.70;84.90
41630;DHT22;27322;49.488;8.480;2023-02-28T17:54:52;5.70;85.00
41630;DHT22;27322;49.488;8.480;2023-02-28T17:57:17;5.70;84.60
41630;DHT22;27322;49.488;8.480;2023-02-28T17:59:45;5.70;84.70
41630;DHT22;27322;49.488;8.480;2023-02-28T18:02:12;5.70;85.30
41630;DHT22;27322;49.488;8.480;2023-02-28T18:04:38;5.70;85.70
41630;DHT22;27322;49.488;8.480;2023-02-28T18:07:05;5.60;86.20
41630;DHT22;27322;49.488;8.480;2023-02-28T18:09:32;5.60;86.70
41630;DHT22;27322;49.488;8.480;2023-02-28T18:11:58;5.60;86.80
41630;DHT22;27322;49.488;8.480;2023-02-28T18:14:24;5.60;87.60
41630;DHT22;27322;49.488;8.480;2023-02-28T18:16:52;5.60;87.50
41630;DHT22;27322;49.488;8.480;2023-02-28T18:19:18;5.60;87.00
41630;DHT22;27322;49.488;8.480;2023-02-28T18:21:48;5.60;86.90
41630;DHT22;27322;49.488;8.480;2023-02-28T18:24:15;5.60;87.60
41630;DHT22;27322;49.488;8.480;2023-02-28T18:26:41;5.60;87.30
41630;DHT22;27322;49.488;8.480;2023-02-28T18:29:08;5.60;87.10
41630;DHT22;27322;49.488;8.480;2023-02-28T18:31:34;5.60;88.10
41630;DHT22;27322;49.488;8.480;2023-02-28T18:34:00;5.60;87.80
41630;DHT22;27322;49.488;8.480;2023-02-28T18:36:26;5.60;87.80
41630;DHT22;27322;49.488;8.480;2023-02-28T18:38:52;5.60;87.80
41630;DHT22;27322;49.488;8.480;2023-02-28T18:41:19;5.50;87.50
41630;DHT22;27322;49.488;8.480;2023-02-28T18:43:46;5.50;87.60
41630;DHT22;27322;49.488;8.480;2023-02-28T18:46:14;5.50;88.00